Aeroporto :
LOGIN :

Iscrizione | Disclaimer

   EN    FR    IT 

 










Sommario :    VFR   VFR Marginale   IFR   IFR Intensivo   IFR Molto Intensivo
Visibilità : 
Base nubi : 
>= 8 km
>= 3000ft
5 / 8 km
1000 / 3000 ft
1500m / 5 km
500 / 1000 ft
800 / 1500m
200 / 500 ft
< 800m
< 200 ft
Simboli :   Temporali  Nebbia  Neve Forte  Precipitazioni Forti  Vento > 20 kt
SIGMETs :   Varie  Temporali  Ghiacco  Turbolenza  Onda orograficha  Ceneri Vulcaniche







- Altitudine del aeroporto : 370 ft


EBBE - Beauvechain AB

ULTIMO METAR :
  • 151525Z 21008KT 9999 FEW120 23/09 Q1013 BLU BLU

METARs OBSOLETI :
  • 151455Z 21007KT 9999 FEW120 24/09 Q1013 BLU BLU
  • 151425Z 18006KT 9999 FEW120 23/10 Q1013 BLU BLU
  • 151355Z 17007KT 9999 FEW120 23/09 Q1012 BLU BLU
  • 151325Z 21010KT 9999 FEW120 23/10 Q1012 BLU BLU
  • 151255Z 19009KT 9999 FEW120 23/09 Q1012 BLU BLU

TAF TAF EBBE
Valido dal 15 a 07 ore il 15 a 16 ore UTC


150541Z 1507/1516 18008KT SCT080
Nessun NOTAM noto per questo aeroporto.



MetMap, La meteo Aeronautica in un colpo d'occhio ! - Copyright ORBIFLY Dicembre 2007 - Disclaimer

ORBIFLY MET'MAP TEAM :

Programmazione e sviluppo : Alexandra Zaïnal
Concezione e sviluppo : Baudouin d'Aumeries
Co-Programmazione e sviluppo : Marc-Olivier Méhu
Supporto tecnico e logistico : Manuel Goepfert
Aiuto per la traduzione : Arnaldo La Scala

Contatto : metmap@orbifly.com




FONTI E CREDITI :

   NOAA